createdAt,value
2022-12-01T00:02:29.450Z,100637.97
2022-12-01T00:07:31.164Z,100639.38
2022-12-01T00:12:32.807Z,100637.91
2022-12-01T00:17:34.401Z,100633.34
2022-12-01T00:22:36.043Z,100633.13
2022-12-01T00:27:37.661Z,100634.81
2022-12-01T00:32:39.269Z,100628.97
2022-12-01T00:37:41.191Z,100627.38
2022-12-01T00:42:42.784Z,100637.63
2022-12-01T00:47:44.393Z,100631.84
2022-12-01T00:52:46.000Z,100637.91
2022-12-01T00:57:47.609Z,100630.03
2022-12-01T01:02:49.264Z,100632.44
2022-12-01T01:07:50.986Z,100628.03
2022-12-01T01:12:52.792Z,100631.63
2022-12-01T01:17:54.382Z,100633.44
2022-12-01T01:22:56.007Z,100640.38
2022-12-01T01:27:57.584Z,100632.34
2022-12-01T01:32:59.254Z,100640.03
2022-12-01T01:38:00.906Z,100647.16
2022-12-01T01:43:02.486Z,100648.31
2022-12-01T01:48:04.508Z,100651.50
2022-12-01T01:53:10.927Z,100655.81
2022-12-01T01:58:12.561Z,100646.94
2022-12-01T02:03:18.395Z,100654.81
2022-12-01T02:08:19.968Z,100660.94
2022-12-01T02:13:36.355Z,100652.22
2022-12-01T02:18:56.892Z,100648.25
2022-12-01T02:24:01.332Z,100646.09
2022-12-01T02:29:27.178Z,100644.28
2022-12-01T02:34:43.571Z,100637.19
2022-12-01T02:40:05.380Z,100637.47
2022-12-01T02:45:14.850Z,100640.56
2022-12-01T02:50:17.130Z,100640.38
2022-12-01T02:55:18.812Z,100645.34
2022-12-01T03:00:20.444Z,100643.41
2022-12-01T03:05:46.446Z,100641.31
2022-12-01T03:10:55.618Z,100641.94
2022-12-01T03:16:15.792Z,100640.34
2022-12-01T03:21:30.678Z,100643.97
2022-12-01T03:26:36.424Z,100637.91
2022-12-01T03:31:45.205Z,100646.13
2022-12-01T03:37:05.233Z,100637.16
2022-12-01T03:42:18.123Z,100630.03
2022-12-01T03:47:22.799Z,100646.84
2022-12-01T03:52:43.124Z,100637.66
2022-12-01T03:57:56.851Z,100630.56
2022-12-01T04:03:02.208Z,100643.53
2022-12-01T04:08:04.096Z,100640.06
2022-12-01T04:13:05.758Z,100645.38
2022-12-01T04:18:07.349Z,100647.00
2022-12-01T04:23:09.640Z,100649.59
2022-12-01T04:28:11.228Z,100646.84
2022-12-01T04:33:12.811Z,100645.13
2022-12-01T04:38:14.406Z,100649.47
2022-12-01T04:43:15.977Z,100651.06
2022-12-01T04:48:17.603Z,100647.34
2022-12-01T04:53:19.196Z,100650.63
2022-12-01T04:58:20.804Z,100655.31
2022-12-01T05:03:22.418Z,100655.78
2022-12-01T05:08:24.048Z,100655.72
2022-12-01T05:13:26.031Z,100661.97
2022-12-01T05:18:27.630Z,100663.00
2022-12-01T05:23:31.772Z,100661.81
2022-12-01T05:28:33.425Z,100666.97
2022-12-01T05:33:35.014Z,100670.31
2022-12-01T05:38:36.594Z,100670.72
2022-12-01T05:43:38.201Z,100664.91
2022-12-01T05:48:39.783Z,100663.97
2022-12-01T05:53:41.556Z,100659.25
2022-12-01T05:58:43.189Z,100664.47
2022-12-01T06:03:44.893Z,100663.56
2022-12-01T06:08:46.519Z,100669.81
2022-12-01T06:13:48.139Z,100669.13
2022-12-01T06:18:49.720Z,100672.78
2022-12-01T06:23:51.327Z,100673.59
2022-12-01T06:28:52.934Z,100680.78
2022-12-01T06:33:54.561Z,100675.59
2022-12-01T06:38:56.165Z,100684.44
2022-12-01T06:43:57.745Z,100690.53
2022-12-01T06:48:59.357Z,100694.78
2022-12-01T06:54:05.512Z,100709.94
2022-12-01T06:59:07.881Z,100717.75
2022-12-01T07:04:09.640Z,100715.25
2022-12-01T07:09:11.322Z,100714.03
2022-12-01T07:14:26.801Z,100721.25
2022-12-01T07:19:28.411Z,100735.13
2022-12-01T07:24:30.906Z,100731.25
2022-12-01T07:29:32.544Z,100733.91
2022-12-01T07:34:34.186Z,100737.97
2022-12-01T07:39:35.855Z,100739.81
2022-12-01T07:44:37.458Z,100744.25
2022-12-01T07:49:39.094Z,100747.94
2022-12-01T07:54:40.777Z,100757.13
2022-12-01T07:59:42.386Z,100754.53
2022-12-01T08:04:44.025Z,100756.78
2022-12-01T08:09:45.823Z,100757.00
2022-12-01T08:14:47.396Z,100764.00
2022-12-01T08:19:49.178Z,100770.50
2022-12-01T08:24:50.947Z,100777.75
2022-12-01T08:29:52.538Z,100781.16
2022-12-01T08:34:54.260Z,100774.00
2022-12-01T08:39:55.877Z,100779.09
2022-12-01T08:44:57.527Z,100775.56
2022-12-01T08:49:59.153Z,100784.88
2022-12-01T08:55:01.348Z,100784.47
2022-12-01T09:00:03.579Z,100779.78
2022-12-01T09:05:05.789Z,100775.34
2022-12-01T09:10:07.949Z,100794.50
2022-12-01T09:15:09.996Z,100785.09
2022-12-01T09:20:12.164Z,100786.72
2022-12-01T09:25:14.799Z,100786.72
2022-12-01T09:30:16.516Z,100794.84
2022-12-01T09:35:23.111Z,100788.13
2022-12-01T09:40:48.199Z,100789.41
2022-12-01T09:46:02.461Z,100797.72
2022-12-01T09:51:04.253Z,100793.19
2022-12-01T09:56:12.712Z,100802.41
2022-12-01T10:01:21.704Z,100800.44
2022-12-01T10:06:45.294Z,100788.38
2022-12-01T10:11:48.505Z,100791.66
2022-12-01T10:16:58.881Z,100786.78
2022-12-01T10:22:36.101Z,100783.59
2022-12-01T10:28:14.976Z,100772.97
2022-12-01T10:33:25.269Z,100777.44
2022-12-01T10:38:32.599Z,100777.06
2022-12-01T10:43:45.447Z,100763.19
2022-12-01T10:48:58.763Z,100760.00
2022-12-01T10:54:08.337Z,100760.00
2022-12-01T10:59:36.018Z,100757.88
2022-12-01T11:04:47.593Z,100751.94
2022-12-01T11:10:16.342Z,100743.16
2022-12-01T11:15:31.320Z,100744.47
2022-12-01T11:20:38.259Z,100751.44
2022-12-01T11:25:39.923Z,100738.06
2022-12-01T11:30:41.559Z,100742.47
2022-12-01T11:35:50.494Z,100735.31
2022-12-01T11:40:57.769Z,100735.25
2022-12-01T11:46:06.688Z,100737.22
2022-12-01T11:51:15.470Z,100737.47
2022-12-01T11:56:28.648Z,100728.81
2022-12-01T12:01:45.957Z,100727.88
2022-12-01T12:07:05.792Z,100729.66
2022-12-01T12:12:10.061Z,100734.34
2022-12-01T12:17:33.354Z,100732.94
2022-12-01T12:22:55.241Z,100730.56
2022-12-01T12:28:10.695Z,100721.00
2022-12-01T12:33:18.290Z,100724.38
2022-12-01T12:38:31.973Z,100721.78
2022-12-01T12:44:02.338Z,100715.47
2022-12-01T12:49:25.764Z,100718.78
2022-12-01T12:54:55.383Z,100709.72
2022-12-01T13:00:18.828Z,100710.09
2022-12-01T13:05:23.455Z,100708.50
2022-12-01T13:10:26.270Z,100708.91
2022-12-01T13:15:29.583Z,100704.94
2022-12-01T13:20:36.815Z,100701.72
2022-12-01T13:25:40.985Z,100702.63
2022-12-01T13:31:00.996Z,100696.84
2022-12-01T13:36:44.734Z,100702.38
2022-12-01T13:41:38.788Z,100689.78
2022-12-01T13:46:44.530Z,100695.22
2022-12-01T13:52:16.978Z,100694.53
2022-12-01T13:57:27.325Z,100702.19
2022-12-01T14:02:37.258Z,100690.78
2022-12-01T14:07:40.143Z,100690.91
2022-12-01T14:12:45.986Z,100685.16
2022-12-01T14:17:58.260Z,100689.03
2022-12-01T14:23:21.438Z,100686.03
2022-12-01T14:29:00.966Z,100695.81
2022-12-01T14:34:08.337Z,100697.34
2022-12-01T14:39:15.069Z,100700.94
2022-12-01T14:44:31.318Z,100698.41
2022-12-01T14:49:41.160Z,100695.00
2022-12-01T14:54:48.864Z,100695.56
2022-12-01T15:00:23.279Z,100692.69
2022-12-01T15:05:30.398Z,100696.13
2022-12-01T15:10:37.037Z,100688.69
2022-12-01T15:15:50.946Z,100680.91
2022-12-01T15:20:59.546Z,100695.50
2022-12-01T15:26:01.211Z,100695.97
2022-12-01T15:31:11.362Z,100694.06
2022-12-01T15:36:13.721Z,100703.72
2022-12-01T15:41:30.177Z,100701.22
2022-12-01T15:46:34.588Z,100693.72
2022-12-01T15:51:36.654Z,100694.41
2022-12-01T15:56:41.133Z,100703.72
2022-12-01T16:01:44.280Z,100706.78
2022-12-01T16:07:08.154Z,100706.00
2022-12-01T16:12:09.685Z,100710.19
2022-12-01T16:17:11.421Z,100720.03
2022-12-01T16:22:14.526Z,100715.22
2022-12-01T16:27:25.685Z,100728.25
2022-12-01T16:32:40.618Z,100734.09
2022-12-01T16:37:42.529Z,100738.81
2022-12-01T16:42:44.427Z,100743.53
2022-12-01T16:47:49.649Z,100738.22
2022-12-01T16:52:51.239Z,100741.22
2022-12-01T16:57:52.921Z,100737.41
2022-12-01T17:02:54.593Z,100722.03
2022-12-01T17:07:56.754Z,100722.97
2022-12-01T17:12:58.984Z,100726.63
2022-12-01T17:18:00.789Z,100726.44
2022-12-01T17:23:02.705Z,100727.34
2022-12-01T17:28:04.305Z,100722.03
2022-12-01T17:33:05.912Z,100727.91
2022-12-01T17:38:08.058Z,100731.13
2022-12-01T17:43:09.758Z,100726.16
2022-12-01T17:48:11.336Z,100727.88
2022-12-01T17:53:12.991Z,100740.09
2022-12-01T17:58:14.784Z,100741.06
2022-12-01T18:03:16.547Z,100736.09
2022-12-01T18:08:18.193Z,100740.31
2022-12-01T18:13:21.337Z,100740.91
2022-12-01T18:18:24.776Z,100739.28
2022-12-01T18:23:27.129Z,100738.69
2022-12-01T18:28:28.739Z,100735.19
2022-12-01T18:33:32.594Z,100736.75
2022-12-01T18:38:35.385Z,100740.00
2022-12-01T18:43:37.556Z,100747.78
2022-12-01T18:48:44.666Z,100744.19
2022-12-01T18:53:48.052Z,100745.63
2022-12-01T18:58:57.846Z,100743.19
2022-12-01T19:04:00.239Z,100736.59
2022-12-01T19:09:03.713Z,100736.28
2022-12-01T19:14:05.338Z,100728.34
2022-12-01T19:19:11.074Z,100720.44
2022-12-01T19:24:15.625Z,100719.38
2022-12-01T19:29:17.270Z,100707.44
2022-12-01T19:34:18.998Z,100713.44
2022-12-01T19:39:20.648Z,100709.41
2022-12-01T19:44:22.281Z,100705.09
2022-12-01T19:49:23.923Z,100704.06
2022-12-01T19:54:25.546Z,100705.91
2022-12-01T19:59:27.190Z,100698.19
2022-12-01T20:04:28.788Z,100693.25
2022-12-01T20:09:30.386Z,100699.94
2022-12-01T20:14:31.958Z,100692.41
2022-12-01T20:19:33.565Z,100686.03
2022-12-01T20:24:39.545Z,100683.38
2022-12-01T20:29:41.259Z,100690.91
2022-12-01T20:34:42.986Z,100691.00
2022-12-01T20:39:44.567Z,100695.38
2022-12-01T20:44:46.534Z,100690.31
2022-12-01T20:49:48.200Z,100696.34
2022-12-01T20:54:50.244Z,100687.72
2022-12-01T20:59:52.108Z,100692.66
2022-12-01T21:04:57.722Z,100688.59
2022-12-01T21:10:01.134Z,100690.19
2022-12-01T21:15:05.648Z,100686.81
2022-12-01T21:20:11.628Z,100681.03
2022-12-01T21:25:18.892Z,100677.34
2022-12-01T21:30:30.023Z,100674.84
2022-12-01T21:35:32.028Z,100679.16
2022-12-01T21:40:34.097Z,100676.44
2022-12-01T21:45:35.750Z,100676.34
2022-12-01T21:50:37.526Z,100679.63
2022-12-01T21:55:40.639Z,100670.50
2022-12-01T22:00:42.673Z,100675.88
2022-12-01T22:06:07.151Z,100674.00
2022-12-01T22:11:20.770Z,100673.97
2022-12-01T22:16:30.077Z,100674.03
2022-12-01T22:21:33.063Z,100666.22
2022-12-01T22:26:37.865Z,100666.28
2022-12-01T22:31:39.591Z,100671.28
2022-12-01T22:36:41.633Z,100666.75
2022-12-01T22:41:44.291Z,100655.19
2022-12-01T22:46:45.941Z,100654.19
2022-12-01T22:51:51.842Z,100660.88
2022-12-01T22:57:21.149Z,100658.19
2022-12-01T23:02:28.756Z,100652.28
2022-12-01T23:07:36.084Z,100653.13
2022-12-01T23:12:38.695Z,100648.75
2022-12-01T23:17:40.729Z,100638.22
2022-12-01T23:22:42.315Z,100636.06
2022-12-01T23:27:49.155Z,100629.09
2022-12-01T23:33:13.088Z,100617.22
2022-12-01T23:38:26.191Z,100618.53
2022-12-01T23:43:31.766Z,100607.50
2022-12-01T23:48:37.882Z,100604.84
2022-12-01T23:53:40.314Z,100602.50
2022-12-01T23:58:43.794Z,100589.81
